createdAt,value
2024-02-02T00:04:16.797Z,99945.09
2024-02-02T00:09:25.649Z,99924.88
2024-02-02T00:14:33.860Z,99926.63
2024-02-02T00:19:39.328Z,99937.38
2024-02-02T00:24:45.197Z,99924.69
2024-02-02T00:29:55.767Z,99919.88
2024-02-02T00:35:04.283Z,99923.09
2024-02-02T00:40:12.955Z,99919.75
2024-02-02T00:45:22.757Z,99930.53
2024-02-02T00:50:30.279Z,99933.50
2024-02-02T00:55:35.496Z,99933.97
2024-02-02T01:00:43.758Z,99937.53
2024-02-02T01:05:49.274Z,99943.84
2024-02-02T01:10:54.791Z,99934.88
2024-02-02T01:16:03.064Z,99935.03
2024-02-02T01:21:09.422Z,99925.63
2024-02-02T01:26:15.493Z,99915.44
2024-02-02T01:31:23.405Z,99925.63
2024-02-02T01:36:28.779Z,99914.50
2024-02-02T01:41:34.238Z,99914.75
2024-02-02T01:46:42.073Z,99916.00
2024-02-02T01:51:47.296Z,99913.94
2024-02-02T01:56:53.309Z,99919.09
2024-02-02T02:02:02.746Z,99914.06
2024-02-02T02:07:09.390Z,99921.63
2024-02-02T02:12:14.876Z,99929.31
2024-02-02T02:17:26.165Z,99935.25
2024-02-02T02:22:34.336Z,99928.16
2024-02-02T02:27:39.909Z,99931.59
2024-02-02T02:32:45.555Z,99939.16
2024-02-02T02:37:54.287Z,99930.56
2024-02-02T02:43:01.301Z,99919.91
2024-02-02T02:48:06.726Z,99924.59
2024-02-02T02:53:14.714Z,99923.91
2024-02-02T02:58:20.108Z,99920.16
2024-02-02T03:03:25.442Z,99922.66
2024-02-02T03:08:33.408Z,99935.03
2024-02-02T03:13:38.921Z,99933.31
2024-02-02T03:18:45.792Z,99919.44
2024-02-02T03:23:54.031Z,99922.31
2024-02-02T03:29:02.248Z,99918.06
2024-02-02T03:34:08.032Z,99927.72
2024-02-02T03:39:16.938Z,99928.72
2024-02-02T03:44:25.039Z,99931.38
2024-02-02T03:49:30.602Z,99912.81
2024-02-02T03:54:38.875Z,99925.53
2024-02-02T03:59:44.643Z,99928.84
2024-02-02T04:04:50.001Z,99930.44
2024-02-02T04:09:58.445Z,99934.13
2024-02-02T04:15:03.629Z,99930.34
2024-02-02T04:20:10.561Z,99940.41
2024-02-02T04:25:18.538Z,99952.44
2024-02-02T04:30:23.917Z,99951.63
2024-02-02T04:35:31.197Z,99944.53
2024-02-02T04:40:38.981Z,99950.94
2024-02-02T04:45:45.476Z,99962.41
2024-02-02T04:50:51.275Z,99957.25
2024-02-02T04:55:59.111Z,99956.22
2024-02-02T05:01:05.051Z,99947.75
2024-02-02T05:06:11.403Z,99956.44
2024-02-02T05:11:20.043Z,99957.47
2024-02-02T05:16:27.160Z,99949.47
2024-02-02T05:21:35.957Z,99957.44
2024-02-02T05:26:45.998Z,99952.97
2024-02-02T05:31:51.415Z,99942.25
2024-02-02T05:37:06.005Z,99942.69
2024-02-02T05:42:15.191Z,99947.28
2024-02-02T05:47:22.812Z,99954.16
2024-02-02T05:52:28.958Z,99937.19
2024-02-02T05:57:37.171Z,99941.78
2024-02-02T06:02:43.408Z,99934.81
2024-02-02T06:07:49.025Z,99926.22
2024-02-02T06:13:01.912Z,99943.59
2024-02-02T06:18:09.126Z,99930.44
2024-02-02T06:23:18.039Z,99923.72
2024-02-02T06:28:28.438Z,99921.50
2024-02-02T06:33:33.818Z,99925.16
2024-02-02T06:38:41.228Z,99924.59
2024-02-02T06:43:51.283Z,99938.53
2024-02-02T06:48:59.095Z,99933.97
2024-02-02T06:54:04.696Z,99923.91
2024-02-02T06:59:13.378Z,99926.44
2024-02-02T07:04:21.699Z,99932.28
2024-02-02T07:09:35.228Z,99927.47
2024-02-02T07:14:52.475Z,99924.47
2024-02-02T07:19:58.594Z,99933.44
2024-02-02T07:31:22.688Z,99925.16
2024-02-02T07:36:35.136Z,99920.59
2024-02-02T07:41:48.372Z,99930.91
2024-02-02T07:46:57.568Z,99933.19
2024-02-02T07:52:03.699Z,99918.25
2024-02-02T07:57:09.305Z,99910.69
2024-02-02T08:02:18.708Z,99909.97
2024-02-02T08:07:24.137Z,99908.16
2024-02-02T08:12:39.863Z,99901.47
2024-02-02T08:17:49.138Z,99897.63
2024-02-02T08:22:54.445Z,99876.09
2024-02-02T08:28:00.094Z,99881.13
2024-02-02T08:33:25.444Z,99891.22
2024-02-02T08:38:34.232Z,99866.44
2024-02-02T08:43:45.585Z,99840.03
2024-02-02T08:48:56.740Z,99848.84
2024-02-02T08:54:35.618Z,99840.19
2024-02-02T08:59:44.874Z,99839.53
2024-02-02T09:05:08.155Z,99837.78
2024-02-02T09:10:44.870Z,99829.03
2024-02-02T09:15:50.316Z,99818.94
2024-02-02T09:21:00.465Z,99820.16
2024-02-02T09:26:13.628Z,99822.56
2024-02-02T09:31:26.921Z,99821.03
2024-02-02T09:36:35.370Z,99814.97
2024-02-02T09:42:06.373Z,99799.03
2024-02-02T09:47:33.600Z,99799.28
2024-02-02T09:52:58.901Z,99792.31
2024-02-02T09:58:12.424Z,99799.44
2024-02-02T10:03:28.577Z,99807.16
2024-02-02T10:08:56.123Z,99785.84
2024-02-02T10:14:15.609Z,99787.59
2024-02-02T10:19:52.000Z,99774.69
2024-02-02T10:25:13.913Z,99788.25
2024-02-02T10:30:33.557Z,99774.16
2024-02-02T10:35:49.282Z,99773.56
2024-02-02T10:41:09.860Z,99784.78
2024-02-02T10:52:34.939Z,99732.13
2024-02-02T11:03:42.603Z,99701.41
2024-02-02T11:08:59.433Z,99720.75
2024-02-02T11:14:17.686Z,99716.50
2024-02-02T11:19:46.781Z,99714.31
2024-02-02T11:25:11.211Z,99705.91
2024-02-02T11:30:35.007Z,99704.31
2024-02-02T11:35:51.842Z,99688.88
2024-02-02T11:41:02.157Z,99664.34
2024-02-02T11:46:11.027Z,99639.50
2024-02-02T11:51:22.230Z,99622.16
2024-02-02T11:56:36.618Z,99622.03
2024-02-02T12:01:58.933Z,99616.88
2024-02-02T12:07:17.023Z,99606.59
2024-02-02T12:12:27.959Z,99596.59
2024-02-02T12:17:36.488Z,99588.00
2024-02-02T12:22:41.838Z,99591.03
2024-02-02T12:27:48.093Z,99585.13
2024-02-02T12:33:00.647Z,99568.84
2024-02-02T12:38:08.785Z,99566.06
2024-02-02T12:43:13.954Z,99554.94
2024-02-02T12:48:25.889Z,99537.84
2024-02-02T12:53:45.307Z,99537.19
2024-02-02T12:58:50.738Z,99537.88
2024-02-02T13:03:59.907Z,99519.06
2024-02-02T13:09:30.965Z,99502.72
2024-02-02T13:14:39.569Z,99504.09
2024-02-02T13:19:49.463Z,99491.38
2024-02-02T13:24:58.602Z,99475.75
2024-02-02T13:30:06.551Z,99473.44
2024-02-02T13:35:24.506Z,99477.66
2024-02-02T13:40:30.744Z,99461.00
2024-02-02T13:45:36.184Z,99444.84
2024-02-02T13:51:01.297Z,99444.59
2024-02-02T13:56:14.019Z,99430.84
2024-02-02T14:01:22.954Z,99427.13
2024-02-02T14:06:33.798Z,99431.66
2024-02-02T14:11:39.461Z,99410.72
2024-02-02T14:16:44.971Z,99403.06
2024-02-02T14:21:54.097Z,99394.31
2024-02-02T14:27:00.428Z,99382.91
2024-02-02T14:32:06.001Z,99387.16
2024-02-02T14:37:16.179Z,99377.63
2024-02-02T14:42:23.705Z,99389.00
2024-02-02T14:47:29.313Z,99382.38
2024-02-02T14:52:37.187Z,99385.28
2024-02-02T14:57:45.793Z,99375.78
2024-02-02T15:02:57.221Z,99370.75
2024-02-02T15:08:05.539Z,99359.88
2024-02-02T15:13:12.028Z,99363.06
2024-02-02T15:18:21.159Z,99344.50
2024-02-02T15:23:29.656Z,99338.97
2024-02-02T15:28:35.951Z,99338.41
2024-02-02T15:33:42.657Z,99328.88
2024-02-02T15:39:06.683Z,99331.78
2024-02-02T15:44:16.217Z,99323.63
2024-02-02T15:49:21.975Z,99318.31
2024-02-02T15:54:30.414Z,99308.25
2024-02-02T15:59:41.060Z,99287.34
2024-02-02T16:04:58.739Z,99276.75
2024-02-02T16:10:07.252Z,99284.97
2024-02-02T16:15:13.570Z,99278.06
2024-02-02T16:20:21.833Z,99273.31
2024-02-02T16:25:32.721Z,99266.97
2024-02-02T16:30:38.501Z,99260.59
2024-02-02T16:35:44.137Z,99254.78
2024-02-02T16:40:52.052Z,99259.28
2024-02-02T16:45:57.272Z,99254.53
2024-02-02T16:51:02.553Z,99250.56
2024-02-02T16:56:19.976Z,99246.59
2024-02-02T17:01:32.178Z,99250.28
2024-02-02T17:06:37.517Z,99248.72
2024-02-02T17:11:49.786Z,99246.84
2024-02-02T17:16:55.507Z,99234.69
2024-02-02T17:22:01.449Z,99233.38
2024-02-02T17:27:09.624Z,99222.75
2024-02-02T17:32:17.582Z,99239.44
2024-02-02T17:37:23.193Z,99236.25
2024-02-02T17:42:31.187Z,99227.78
2024-02-02T17:47:42.154Z,99228.31
2024-02-02T17:52:54.503Z,99242.06
2024-02-02T17:58:10.399Z,99246.84
2024-02-02T18:03:21.464Z,99238.66
2024-02-02T18:08:30.268Z,99233.06
2024-02-02T18:14:04.556Z,99219.03
2024-02-02T18:24:51.986Z,99227.78
2024-02-02T18:30:00.108Z,99233.06
2024-02-02T18:35:05.624Z,99219.31
2024-02-02T18:40:12.569Z,99205.53
2024-02-02T18:45:22.951Z,99210.34
2024-02-02T18:50:28.874Z,99234.94
2024-02-02T18:55:34.274Z,99223.56
2024-02-02T19:00:42.397Z,99227.53
2024-02-02T19:05:56.243Z,99238.91
2024-02-02T19:11:03.784Z,99239.44
2024-02-02T19:16:19.627Z,99244.19
2024-02-02T19:21:26.995Z,99234.94
2024-02-02T19:26:32.563Z,99234.13
2024-02-02T19:31:41.996Z,99239.91
2024-02-02T19:36:48.472Z,99247.03
2024-02-02T19:41:59.218Z,99236.69
2024-02-02T19:47:07.794Z,99238.00
2024-02-02T19:52:13.296Z,99235.84
2024-02-02T19:57:18.953Z,99247.44
2024-02-02T20:02:30.216Z,99252.00
2024-02-02T20:07:36.174Z,99216.72
2024-02-02T20:12:43.366Z,99226.00
2024-02-02T20:17:52.859Z,99207.69
2024-02-02T20:22:59.140Z,99212.25
2024-02-02T20:28:07.901Z,99224.94
2024-02-02T20:33:17.033Z,99223.31
2024-02-02T20:38:22.755Z,99217.22
2024-02-02T20:43:31.733Z,99240.00
2024-02-02T20:48:39.906Z,99250.13
2024-02-02T20:53:46.671Z,99250.38
2024-02-02T20:58:53.845Z,99244.78
2024-02-02T21:04:08.137Z,99254.63
2024-02-02T21:09:17.836Z,99273.69
2024-02-02T21:14:23.278Z,99268.41
2024-02-02T21:19:32.572Z,99268.69
2024-02-02T21:24:38.257Z,99268.69
2024-02-02T21:29:50.931Z,99258.63
2024-02-02T21:34:58.985Z,99256.25
2024-02-02T21:40:07.674Z,99257.06
2024-02-02T21:45:14.849Z,99260.50
2024-02-02T21:50:25.785Z,99258.91
2024-02-02T21:55:33.762Z,99266.34
2024-02-02T22:00:39.790Z,99271.13
2024-02-02T22:05:49.982Z,99282.22
2024-02-02T22:10:55.593Z,99266.34
2024-02-02T22:16:01.968Z,99265.81
2024-02-02T22:21:10.392Z,99257.06
2024-02-02T22:26:15.738Z,99251.53
2024-02-02T22:31:21.838Z,99256.84
2024-02-02T22:36:29.871Z,99240.94
2024-02-02T22:41:37.953Z,99248.34
2024-02-02T22:46:43.281Z,99260.53
2024-02-02T22:51:52.374Z,99265.59
2024-02-02T22:56:57.823Z,99259.72
2024-02-02T23:02:03.145Z,99239.34
2024-02-02T23:07:11.379Z,99237.78
2024-02-02T23:12:16.940Z,99258.97
2024-02-02T23:17:22.776Z,99245.19
2024-02-02T23:22:31.817Z,99250.50
2024-02-02T23:27:38.155Z,99246.25
2024-02-02T23:32:48.115Z,99242.50
2024-02-02T23:37:56.006Z,99248.09
2024-02-02T23:43:01.692Z,99237.78
2024-02-02T23:48:08.027Z,99242.00
2024-02-02T23:53:16.099Z,99242.78
2024-02-02T23:58:21.952Z,99235.63
